sensor_id;sensor_type;location;lat;lon;timestamp;temperature;humidity
21580;DHT22;10951;59.656;9.666;2024-03-25T00:00:48;3.20;99.90
21580;DHT22;10951;59.656;9.666;2024-03-25T00:03:14;3.30;99.90
21580;DHT22;10951;59.656;9.666;2024-03-25T00:05:40;3.30;99.90
21580;DHT22;10951;59.656;9.666;2024-03-25T00:08:05;3.20;99.90
21580;DHT22;10951;59.656;9.666;2024-03-25T00:10:33;3.20;99.90
21580;DHT22;10951;59.656;9.666;2024-03-25T00:12:59;3.20;99.90
21580;DHT22;10951;59.656;9.666;2024-03-25T00:15:26;3.20;99.90
21580;DHT22;10951;59.656;9.666;2024-03-25T00:17:52;3.20;99.90
21580;DHT22;10951;59.656;9.666;2024-03-25T00:20:18;3.20;99.90
21580;DHT22;10951;59.656;9.666;2024-03-25T00:22:43;3.20;99.90
21580;DHT22;10951;59.656;9.666;2024-03-25T00:25:10;3.20;99.90
21580;DHT22;10951;59.656;9.666;2024-03-25T00:27:35;3.20;99.90
21580;DHT22;10951;59.656;9.666;2024-03-25T00:30:01;3.20;99.90
21580;DHT22;10951;59.656;9.666;2024-03-25T00:32:28;3.20;99.90
21580;DHT22;10951;59.656;9.666;2024-03-25T00:34:54;3.20;99.90
21580;DHT22;10951;59.656;9.666;2024-03-25T00:37:20;3.20;99.90
21580;DHT22;10951;59.656;9.666;2024-03-25T00:39:46;3.20;99.90
21580;DHT22;10951;59.656;9.666;2024-03-25T00:42:12;3.20;99.90
21580;DHT22;10951;59.656;9.666;2024-03-25T00:44:38;3.20;99.90
21580;DHT22;10951;59.656;9.666;2024-03-25T00:47:04;3.20;99.90
21580;DHT22;10951;59.656;9.666;2024-03-25T00:49:30;3.20;99.90
21580;DHT22;10951;59.656;9.666;2024-03-25T00:51:56;3.20;99.00
21580;DHT22;10951;59.656;9.666;2024-03-25T00:54:22;3.20;98.40
21580;DHT22;10951;59.656;9.666;2024-03-25T00:56:49;3.30;98.60
21580;DHT22;10951;59.656;9.666;2024-03-25T00:59:15;3.20;98.40
21580;DHT22;10951;59.656;9.666;2024-03-25T01:01:42;3.20;98.20
21580;DHT22;10951;59.656;9.666;2024-03-25T01:04:08;3.20;98.40
21580;DHT22;10951;59.656;9.666;2024-03-25T01:06:34;3.10;98.70
21580;DHT22;10951;59.656;9.666;2024-03-25T01:08:59;3.20;98.50
21580;DHT22;10951;59.656;9.666;2024-03-25T01:11:25;3.20;98.40
21580;DHT22;10951;59.656;9.666;2024-03-25T01:13:51;3.20;97.90
21580;DHT22;10951;59.656;9.666;2024-03-25T01:16:17;3.20;97.90
21580;DHT22;10951;59.656;9.666;2024-03-25T01:18:43;3.20;97.70
21580;DHT22;10951;59.656;9.666;2024-03-25T01:21:09;3.20;96.80
21580;DHT22;10951;59.656;9.666;2024-03-25T01:23:35;3.20;96.60
21580;DHT22;10951;59.656;9.666;2024-03-25T01:26:01;3.10;96.90
21580;DHT22;10951;59.656;9.666;2024-03-25T01:28:27;3.10;96.90
21580;DHT22;10951;59.656;9.666;2024-03-25T01:30:53;3.10;95.20
21580;DHT22;10951;59.656;9.666;2024-03-25T01:33:19;3.10;95.30
21580;DHT22;10951;59.656;9.666;2024-03-25T01:35:45;3.10;95.60
21580;DHT22;10951;59.656;9.666;2024-03-25T01:38:11;3.10;94.50
21580;DHT22;10951;59.656;9.666;2024-03-25T01:40:37;3.10;95.00
21580;DHT22;10951;59.656;9.666;2024-03-25T01:43:03;3.10;95.30
21580;DHT22;10951;59.656;9.666;2024-03-25T01:45:30;3.10;95.20
21580;DHT22;10951;59.656;9.666;2024-03-25T01:47:56;3.10;95.10
21580;DHT22;10951;59.656;9.666;2024-03-25T01:50:23;3.10;94.90
21580;DHT22;10951;59.656;9.666;2024-03-25T01:52:50;3.10;94.90
21580;DHT22;10951;59.656;9.666;2024-03-25T01:55:17;3.00;95.20
21580;DHT22;10951;59.656;9.666;2024-03-25T01:57:43;3.10;95.20
21580;DHT22;10951;59.656;9.666;2024-03-25T02:00:10;3.10;95.00
21580;DHT22;10951;59.656;9.666;2024-03-25T02:02:45;3.10;95.00
21580;DHT22;10951;59.656;9.666;2024-03-25T02:05:13;3.10;95.30
21580;DHT22;10951;59.656;9.666;2024-03-25T02:07:39;3.00;95.20
21580;DHT22;10951;59.656;9.666;2024-03-25T02:10:07;3.00;95.20
21580;DHT22;10951;59.656;9.666;2024-03-25T02:12:35;2.90;94.90
21580;DHT22;10951;59.656;9.666;2024-03-25T02:15:01;2.90;95.30
21580;DHT22;10951;59.656;9.666;2024-03-25T02:17:27;2.90;95.20
21580;DHT22;10951;59.656;9.666;2024-03-25T02:19:53;2.90;94.80
21580;DHT22;10951;59.656;9.666;2024-03-25T02:22:19;2.90;94.60
21580;DHT22;10951;59.656;9.666;2024-03-25T02:24:45;2.90;94.40
21580;DHT22;10951;59.656;9.666;2024-03-25T02:27:12;3.00;94.50
21580;DHT22;10951;59.656;9.666;2024-03-25T02:29:40;2.90;94.20
21580;DHT22;10951;59.656;9.666;2024-03-25T02:32:07;2.90;94.10
21580;DHT22;10951;59.656;9.666;2024-03-25T02:34:36;2.90;94.60
21580;DHT22;10951;59.656;9.666;2024-03-25T02:37:02;2.80;94.60
21580;DHT22;10951;59.656;9.666;2024-03-25T02:39:29;2.80;94.60
21580;DHT22;10951;59.656;9.666;2024-03-25T02:41:55;2.80;94.90
21580;DHT22;10951;59.656;9.666;2024-03-25T02:44:21;2.80;95.00
21580;DHT22;10951;59.656;9.666;2024-03-25T02:46:47;2.80;94.60
21580;DHT22;10951;59.656;9.666;2024-03-25T02:49:14;2.80;94.10
21580;DHT22;10951;59.656;9.666;2024-03-25T02:51:40;2.90;93.50
21580;DHT22;10951;59.656;9.666;2024-03-25T02:54:06;3.00;93.00
21580;DHT22;10951;59.656;9.666;2024-03-25T02:56:33;2.90;93.00
21580;DHT22;10951;59.656;9.666;2024-03-25T02:58:59;3.00;92.60
21580;DHT22;10951;59.656;9.666;2024-03-25T03:01:25;3.00;92.60
21580;DHT22;10951;59.656;9.666;2024-03-25T03:03:51;3.00;92.40
21580;DHT22;10951;59.656;9.666;2024-03-25T03:06:18;2.90;92.60
21580;DHT22;10951;59.656;9.666;2024-03-25T03:08:44;3.00;92.70
21580;DHT22;10951;59.656;9.666;2024-03-25T03:11:10;2.90;92.60
21580;DHT22;10951;59.656;9.666;2024-03-25T03:13:36;2.90;92.30
21580;DHT22;10951;59.656;9.666;2024-03-25T03:16:02;2.90;92.30
21580;DHT22;10951;59.656;9.666;2024-03-25T03:18:28;2.90;92.10
21580;DHT22;10951;59.656;9.666;2024-03-25T03:20:54;2.90;91.90
21580;DHT22;10951;59.656;9.666;2024-03-25T03:23:22;2.90;92.30
21580;DHT22;10951;59.656;9.666;2024-03-25T03:25:47;2.80;92.30
21580;DHT22;10951;59.656;9.666;2024-03-25T03:28:14;2.90;92.60
21580;DHT22;10951;59.656;9.666;2024-03-25T03:30:41;2.80;92.80
21580;DHT22;10951;59.656;9.666;2024-03-25T03:33:06;2.80;93.00
21580;DHT22;10951;59.656;9.666;2024-03-25T03:35:33;2.80;93.00
21580;DHT22;10951;59.656;9.666;2024-03-25T03:37:58;2.80;93.00
21580;DHT22;10951;59.656;9.666;2024-03-25T03:40:24;2.80;93.20
21580;DHT22;10951;59.656;9.666;2024-03-25T03:42:50;2.70;93.20
21580;DHT22;10951;59.656;9.666;2024-03-25T03:45:16;2.80;93.20
21580;DHT22;10951;59.656;9.666;2024-03-25T03:47:42;2.70;93.50
21580;DHT22;10951;59.656;9.666;2024-03-25T03:50:09;2.70;93.60
21580;DHT22;10951;59.656;9.666;2024-03-25T03:52:35;2.70;93.70
21580;DHT22;10951;59.656;9.666;2024-03-25T03:55:01;2.70;94.20
21580;DHT22;10951;59.656;9.666;2024-03-25T03:57:26;2.60;94.30
21580;DHT22;10951;59.656;9.666;2024-03-25T03:59:52;2.60;94.40
21580;DHT22;10951;59.656;9.666;2024-03-25T04:02:19;2.60;94.60
21580;DHT22;10951;59.656;9.666;2024-03-25T04:04:45;2.60;94.70
21580;DHT22;10951;59.656;9.666;2024-03-25T04:07:11;2.50;94.40
21580;DHT22;10951;59.656;9.666;2024-03-25T04:09:36;2.60;93.80
21580;DHT22;10951;59.656;9.666;2024-03-25T04:12:02;2.60;94.00
21580;DHT22;10951;59.656;9.666;2024-03-25T04:14:28;2.60;93.70
21580;DHT22;10951;59.656;9.666;2024-03-25T04:16:54;2.60;93.60
21580;DHT22;10951;59.656;9.666;2024-03-25T04:19:23;2.60;93.60
21580;DHT22;10951;59.656;9.666;2024-03-25T04:21:49;2.60;93.40
21580;DHT22;10951;59.656;9.666;2024-03-25T04:24:15;2.60;93.30
21580;DHT22;10951;59.656;9.666;2024-03-25T04:26:41;2.60;93.40
21580;DHT22;10951;59.656;9.666;2024-03-25T04:29:07;2.60;93.70
21580;DHT22;10951;59.656;9.666;2024-03-25T04:31:33;2.60;93.40
21580;DHT22;10951;59.656;9.666;2024-03-25T04:33:59;2.60;93.40
21580;DHT22;10951;59.656;9.666;2024-03-25T04:36:25;2.60;93.20
21580;DHT22;10951;59.656;9.666;2024-03-25T04:38:50;2.60;93.50
21580;DHT22;10951;59.656;9.666;2024-03-25T04:41:16;2.50;93.80
21580;DHT22;10951;59.656;9.666;2024-03-25T04:43:42;2.60;93.00
21580;DHT22;10951;59.656;9.666;2024-03-25T04:46:08;2.60;92.80
21580;DHT22;10951;59.656;9.666;2024-03-25T04:48:34;2.60;92.50
21580;DHT22;10951;59.656;9.666;2024-03-25T04:51:00;2.60;93.00
21580;DHT22;10951;59.656;9.666;2024-03-25T04:53:26;2.50;93.20
21580;DHT22;10951;59.656;9.666;2024-03-25T04:55:51;2.50;93.30
21580;DHT22;10951;59.656;9.666;2024-03-25T04:58:17;2.60;93.00
21580;DHT22;10951;59.656;9.666;2024-03-25T05:00:43;2.60;92.60
21580;DHT22;10951;59.656;9.666;2024-03-25T05:03:10;2.60;92.80
21580;DHT22;10951;59.656;9.666;2024-03-25T05:05:35;2.60;92.70
21580;DHT22;10951;59.656;9.666;2024-03-25T05:08:01;2.60;92.70
21580;DHT22;10951;59.656;9.666;2024-03-25T05:10:29;2.50;92.70
21580;DHT22;10951;59.656;9.666;2024-03-25T05:12:55;2.50;92.60
21580;DHT22;10951;59.656;9.666;2024-03-25T05:15:21;2.50;92.70
21580;DHT22;10951;59.656;9.666;2024-03-25T05:17:47;2.50;92.80
21580;DHT22;10951;59.656;9.666;2024-03-25T05:20:13;2.50;92.60
21580;DHT22;10951;59.656;9.666;2024-03-25T05:22:40;2.50;92.90
21580;DHT22;10951;59.656;9.666;2024-03-25T05:25:06;2.50;93.00
21580;DHT22;10951;59.656;9.666;2024-03-25T05:27:33;2.50;92.90
21580;DHT22;10951;59.656;9.666;2024-03-25T05:29:59;2.60;92.80
21580;DHT22;10951;59.656;9.666;2024-03-25T05:32:24;2.60;92.30
21580;DHT22;10951;59.656;9.666;2024-03-25T05:34:50;2.60;92.00
21580;DHT22;10951;59.656;9.666;2024-03-25T05:37:16;2.50;92.60
21580;DHT22;10951;59.656;9.666;2024-03-25T05:39:42;2.50;92.50
21580;DHT22;10951;59.656;9.666;2024-03-25T05:42:08;2.50;92.80
21580;DHT22;10951;59.656;9.666;2024-03-25T05:44:34;2.50;93.10
21580;DHT22;10951;59.656;9.666;2024-03-25T05:47:00;2.50;93.00
21580;DHT22;10951;59.656;9.666;2024-03-25T05:49:26;2.50;93.20
21580;DHT22;10951;59.656;9.666;2024-03-25T05:51:52;2.50;93.20
21580;DHT22;10951;59.656;9.666;2024-03-25T05:54:18;2.50;93.40
21580;DHT22;10951;59.656;9.666;2024-03-25T05:56:44;2.50;93.00
21580;DHT22;10951;59.656;9.666;2024-03-25T05:59:10;2.60;92.80
21580;DHT22;10951;59.656;9.666;2024-03-25T06:01:36;2.50;92.60
21580;DHT22;10951;59.656;9.666;2024-03-25T06:04:03;2.50;92.60
21580;DHT22;10951;59.656;9.666;2024-03-25T06:06:29;2.50;92.80
21580;DHT22;10951;59.656;9.666;2024-03-25T06:08:55;2.50;93.20
21580;DHT22;10951;59.656;9.666;2024-03-25T06:11:21;2.50;93.50
21580;DHT22;10951;59.656;9.666;2024-03-25T06:13:47;2.50;93.60
21580;DHT22;10951;59.656;9.666;2024-03-25T06:16:13;2.50;93.70
21580;DHT22;10951;59.656;9.666;2024-03-25T06:18:40;2.60;93.50
21580;DHT22;10951;59.656;9.666;2024-03-25T06:21:06;2.50;93.50
21580;DHT22;10951;59.656;9.666;2024-03-25T06:23:32;2.50;93.70
21580;DHT22;10951;59.656;9.666;2024-03-25T06:25:58;2.50;93.40
21580;DHT22;10951;59.656;9.666;2024-03-25T06:28:24;2.50;93.30
21580;DHT22;10951;59.656;9.666;2024-03-25T06:30:50;2.50;93.60
21580;DHT22;10951;59.656;9.666;2024-03-25T06:33:35;2.50;93.90
21580;DHT22;10951;59.656;9.666;2024-03-25T06:36:20;2.50;93.80
21580;DHT22;10951;59.656;9.666;2024-03-25T06:38:46;2.40;93.80
21580;DHT22;10951;59.656;9.666;2024-03-25T06:41:12;2.50;93.60
21580;DHT22;10951;59.656;9.666;2024-03-25T06:43:38;2.40;93.60
21580;DHT22;10951;59.656;9.666;2024-03-25T06:46:05;2.40;93.10
21580;DHT22;10951;59.656;9.666;2024-03-25T06:48:34;2.40;93.30
21580;DHT22;10951;59.656;9.666;2024-03-25T06:51:01;2.30;93.00
21580;DHT22;10951;59.656;9.666;2024-03-25T06:53:29;2.30;93.20
21580;DHT22;10951;59.656;9.666;2024-03-25T06:55:57;2.30;93.60
21580;DHT22;10951;59.656;9.666;2024-03-25T06:58:23;2.30;93.50
21580;DHT22;10951;59.656;9.666;2024-03-25T07:00:50;2.20;94.00
21580;DHT22;10951;59.656;9.666;2024-03-25T07:03:16;2.20;94.50
21580;DHT22;10951;59.656;9.666;2024-03-25T07:05:46;2.20;94.60
21580;DHT22;10951;59.656;9.666;2024-03-25T07:08:12;2.20;94.60
21580;DHT22;10951;59.656;9.666;2024-03-25T07:10:41;2.20;94.80
21580;DHT22;10951;59.656;9.666;2024-03-25T07:13:07;2.20;95.00
21580;DHT22;10951;59.656;9.666;2024-03-25T07:15:35;2.20;95.10
21580;DHT22;10951;59.656;9.666;2024-03-25T07:18:01;2.20;95.10
21580;DHT22;10951;59.656;9.666;2024-03-25T07:20:27;2.20;95.00
21580;DHT22;10951;59.656;9.666;2024-03-25T07:22:53;2.20;95.20
21580;DHT22;10951;59.656;9.666;2024-03-25T07:25:25;2.10;95.70
21580;DHT22;10951;59.656;9.666;2024-03-25T07:27:51;2.10;95.60
21580;DHT22;10951;59.656;9.666;2024-03-25T07:30:20;2.10;95.80
21580;DHT22;10951;59.656;9.666;2024-03-25T07:32:50;2.10;96.30
21580;DHT22;10951;59.656;9.666;2024-03-25T07:35:16;2.10;96.20
21580;DHT22;10951;59.656;9.666;2024-03-25T07:37:43;2.10;96.50
21580;DHT22;10951;59.656;9.666;2024-03-25T07:40:09;2.10;96.60
21580;DHT22;10951;59.656;9.666;2024-03-25T07:42:37;2.10;96.90
21580;DHT22;10951;59.656;9.666;2024-03-25T07:45:04;2.20;97.40
21580;DHT22;10951;59.656;9.666;2024-03-25T07:47:31;2.00;98.10
21580;DHT22;10951;59.656;9.666;2024-03-25T07:49:58;1.90;98.70
21580;DHT22;10951;59.656;9.666;2024-03-25T07:52:25;1.90;99.30
21580;DHT22;10951;59.656;9.666;2024-03-25T07:54:51;1.90;99.80
21580;DHT22;10951;59.656;9.666;2024-03-25T07:57:17;1.90;99.90
21580;DHT22;10951;59.656;9.666;2024-03-25T07:59:43;1.90;99.90
21580;DHT22;10951;59.656;9.666;2024-03-25T08:02:09;1.90;99.90
21580;DHT22;10951;59.656;9.666;2024-03-25T08:04:35;1.90;99.90
21580;DHT22;10951;59.656;9.666;2024-03-25T08:07:01;1.90;99.90
21580;DHT22;10951;59.656;9.666;2024-03-25T08:09:28;1.90;99.90
21580;DHT22;10951;59.656;9.666;2024-03-25T08:11:54;2.00;99.90
21580;DHT22;10951;59.656;9.666;2024-03-25T08:14:20;2.00;99.90
21580;DHT22;10951;59.656;9.666;2024-03-25T08:16:46;2.00;99.90
21580;DHT22;10951;59.656;9.666;2024-03-25T08:19:12;2.10;99.90
21580;DHT22;10951;59.656;9.666;2024-03-25T08:21:38;2.30;99.90
21580;DHT22;10951;59.656;9.666;2024-03-25T08:24:04;2.40;98.10
21580;DHT22;10951;59.656;9.666;2024-03-25T08:26:30;2.40;97.40
21580;DHT22;10951;59.656;9.666;2024-03-25T08:28:56;2.50;97.40
21580;DHT22;10951;59.656;9.666;2024-03-25T08:31:22;2.60;96.90
21580;DHT22;10951;59.656;9.666;2024-03-25T08:33:48;2.60;96.70
21580;DHT22;10951;59.656;9.666;2024-03-25T08:36:14;2.60;96.30
21580;DHT22;10951;59.656;9.666;2024-03-25T08:38:40;2.60;96.40
21580;DHT22;10951;59.656;9.666;2024-03-25T08:41:06;2.50;96.00
21580;DHT22;10951;59.656;9.666;2024-03-25T08:43:32;2.50;96.40
21580;DHT22;10951;59.656;9.666;2024-03-25T08:45:58;2.60;96.40
21580;DHT22;10951;59.656;9.666;2024-03-25T08:48:24;2.60;96.30
21580;DHT22;10951;59.656;9.666;2024-03-25T08:50:50;2.50;96.50
21580;DHT22;10951;59.656;9.666;2024-03-25T08:53:16;2.50;96.70
21580;DHT22;10951;59.656;9.666;2024-03-25T08:55:45;2.40;96.40
21580;DHT22;10951;59.656;9.666;2024-03-25T08:58:14;2.40;98.30
21580;DHT22;10951;59.656;9.666;2024-03-25T09:00:41;2.40;99.20
21580;DHT22;10951;59.656;9.666;2024-03-25T09:03:07;2.30;99.90
21580;DHT22;10951;59.656;9.666;2024-03-25T09:05:34;2.20;99.90
21580;DHT22;10951;59.656;9.666;2024-03-25T09:08:00;2.10;99.90
21580;DHT22;10951;59.656;9.666;2024-03-25T09:10:26;1.90;99.90
21580;DHT22;10951;59.656;9.666;2024-03-25T09:13:11;1.90;99.90
21580;DHT22;10951;59.656;9.666;2024-03-25T09:15:37;1.80;99.90
21580;DHT22;10951;59.656;9.666;2024-03-25T09:18:03;1.80;99.90
21580;DHT22;10951;59.656;9.666;2024-03-25T09:20:28;1.80;99.90
21580;DHT22;10951;59.656;9.666;2024-03-25T09:22:55;1.80;99.90
21580;DHT22;10951;59.656;9.666;2024-03-25T09:25:20;1.80;99.90
21580;DHT22;10951;59.656;9.666;2024-03-25T09:27:47;2.00;99.90
21580;DHT22;10951;59.656;9.666;2024-03-25T09:30:13;2.20;99.90
21580;DHT22;10951;59.656;9.666;2024-03-25T09:32:40;2.20;99.70
21580;DHT22;10951;59.656;9.666;2024-03-25T09:35:06;2.20;99.80
21580;DHT22;10951;59.656;9.666;2024-03-25T09:37:33;2.30;99.90
21580;DHT22;10951;59.656;9.666;2024-03-25T09:39:59;2.20;99.30
21580;DHT22;10951;59.656;9.666;2024-03-25T09:42:26;2.30;99.90
21580;DHT22;10951;59.656;9.666;2024-03-25T09:44:56;2.40;99.80
21580;DHT22;10951;59.656;9.666;2024-03-25T09:47:22;2.50;99.80
21580;DHT22;10951;59.656;9.666;2024-03-25T09:49:49;2.60;99.40
21580;DHT22;10951;59.656;9.666;2024-03-25T09:52:16;2.60;98.40
21580;DHT22;10951;59.656;9.666;2024-03-25T09:54:42;2.50;98.50
21580;DHT22;10951;59.656;9.666;2024-03-25T09:57:08;2.40;99.30
21580;DHT22;10951;59.656;9.666;2024-03-25T09:59:35;2.40;99.50
21580;DHT22;10951;59.656;9.666;2024-03-25T10:02:01;2.40;99.50
21580;DHT22;10951;59.656;9.666;2024-03-25T10:04:27;2.50;99.70
21580;DHT22;10951;59.656;9.666;2024-03-25T10:06:53;2.60;99.70
21580;DHT22;10951;59.656;9.666;2024-03-25T10:09:22;2.70;99.20
21580;DHT22;10951;59.656;9.666;2024-03-25T10:11:48;2.90;99.10
21580;DHT22;10951;59.656;9.666;2024-03-25T10:14:18;2.90;99.60
21580;DHT22;10951;59.656;9.666;2024-03-25T10:16:48;2.90;99.40
21580;DHT22;10951;59.656;9.666;2024-03-25T10:19:14;2.90;98.50
21580;DHT22;10951;59.656;9.666;2024-03-25T10:21:40;3.00;99.20
21580;DHT22;10951;59.656;9.666;2024-03-25T10:24:06;3.10;99.40
21580;DHT22;10951;59.656;9.666;2024-03-25T10:26:32;3.20;98.90
21580;DHT22;10951;59.656;9.666;2024-03-25T10:29:04;3.30;98.90
21580;DHT22;10951;59.656;9.666;2024-03-25T10:31:32;3.20;98.60
21580;DHT22;10951;59.656;9.666;2024-03-25T10:33:58;3.20;98.60
21580;DHT22;10951;59.656;9.666;2024-03-25T10:36:24;2.90;98.60
21580;DHT22;10951;59.656;9.666;2024-03-25T10:38:54;2.80;99.90
21580;DHT22;10951;59.656;9.666;2024-03-25T10:41:20;2.80;99.40
21580;DHT22;10951;59.656;9.666;2024-03-25T10:43:46;2.70;99.60
21580;DHT22;10951;59.656;9.666;2024-03-25T10:46:17;2.50;99.70
21580;DHT22;10951;59.656;9.666;2024-03-25T10:48:43;2.40;99.90
21580;DHT22;10951;59.656;9.666;2024-03-25T10:51:13;2.40;99.90
21580;DHT22;10951;59.656;9.666;2024-03-25T10:53:40;2.50;99.90
21580;DHT22;10951;59.656;9.666;2024-03-25T10:56:06;2.60;99.90
21580;DHT22;10951;59.656;9.666;2024-03-25T10:58:33;2.70;99.90
21580;DHT22;10951;59.656;9.666;2024-03-25T11:00:59;2.80;99.90
21580;DHT22;10951;59.656;9.666;2024-03-25T11:03:25;2.80;99.90
21580;DHT22;10951;59.656;9.666;2024-03-25T11:05:52;2.80;99.60
21580;DHT22;10951;59.656;9.666;2024-03-25T11:08:18;2.80;99.80
21580;DHT22;10951;59.656;9.666;2024-03-25T11:10:45;2.70;99.60
21580;DHT22;10951;59.656;9.666;2024-03-25T11:13:21;2.60;99.90
21580;DHT22;10951;59.656;9.666;2024-03-25T11:15:47;2.60;99.90
21580;DHT22;10951;59.656;9.666;2024-03-25T11:18:14;2.60;99.90
21580;DHT22;10951;59.656;9.666;2024-03-25T11:20:41;2.70;99.90
21580;DHT22;10951;59.656;9.666;2024-03-25T11:23:08;2.80;99.90
21580;DHT22;10951;59.656;9.666;2024-03-25T11:25:34;2.70;99.90
21580;DHT22;10951;59.656;9.666;2024-03-25T11:28:00;2.70;99.90
21580;DHT22;10951;59.656;9.666;2024-03-25T11:30:27;2.70;99.90
21580;DHT22;10951;59.656;9.666;2024-03-25T11:32:53;2.70;99.90
21580;DHT22;10951;59.656;9.666;2024-03-25T11:35:19;2.80;99.90
21580;DHT22;10951;59.656;9.666;2024-03-25T11:37:46;2.90;99.90
21580;DHT22;10951;59.656;9.666;2024-03-25T11:40:13;3.10;99.90
21580;DHT22;10951;59.656;9.666;2024-03-25T11:42:40;3.20;99.90
21580;DHT22;10951;59.656;9.666;2024-03-25T11:45:16;3.30;99.70
21580;DHT22;10951;59.656;9.666;2024-03-25T11:47:42;3.30;99.20
21580;DHT22;10951;59.656;9.666;2024-03-25T11:50:12;3.20;99.20
21580;DHT22;10951;59.656;9.666;2024-03-25T11:52:39;3.30;99.70
21580;DHT22;10951;59.656;9.666;2024-03-25T11:55:05;3.40;99.60
21580;DHT22;10951;59.656;9.666;2024-03-25T11:57:31;3.40;99.10
21580;DHT22;10951;59.656;9.666;2024-03-25T11:59:59;3.40;98.90
21580;DHT22;10951;59.656;9.666;2024-03-25T12:02:26;3.50;98.50
21580;DHT22;10951;59.656;9.666;2024-03-25T12:04:52;3.50;99.00
21580;DHT22;10951;59.656;9.666;2024-03-25T12:07:18;3.70;98.50
21580;DHT22;10951;59.656;9.666;2024-03-25T12:09:44;3.70;98.30
21580;DHT22;10951;59.656;9.666;2024-03-25T12:12:29;3.70;98.70
21580;DHT22;10951;59.656;9.666;2024-03-25T12:14:55;3.80;98.50
21580;DHT22;10951;59.656;9.666;2024-03-25T12:17:21;3.90;98.30
21580;DHT22;10951;59.656;9.666;2024-03-25T12:20:07;4.10;98.30
21580;DHT22;10951;59.656;9.666;2024-03-25T12:22:34;4.10;96.80
21580;DHT22;10951;59.656;9.666;2024-03-25T12:25:02;4.20;96.50
21580;DHT22;10951;59.656;9.666;2024-03-25T12:27:28;4.10;96.50
21580;DHT22;10951;59.656;9.666;2024-03-25T12:30:01;4.10;96.40
21580;DHT22;10951;59.656;9.666;2024-03-25T12:35:10;4.00;95.60
21580;DHT22;10951;59.656;9.666;2024-03-25T12:37:37;3.90;95.90
21580;DHT22;10951;59.656;9.666;2024-03-25T12:40:04;3.80;95.70
21580;DHT22;10951;59.656;9.666;2024-03-25T12:42:32;3.70;96.00
21580;DHT22;10951;59.656;9.666;2024-03-25T12:44:58;3.60;95.80
21580;DHT22;10951;59.656;9.666;2024-03-25T12:47:24;3.50;95.90
21580;DHT22;10951;59.656;9.666;2024-03-25T12:49:50;3.50;96.70
21580;DHT22;10951;59.656;9.666;2024-03-25T12:52:16;3.50;97.40
21580;DHT22;10951;59.656;9.666;2024-03-25T12:54:42;3.60;97.50
21580;DHT22;10951;59.656;9.666;2024-03-25T12:57:09;3.70;97.70
21580;DHT22;10951;59.656;9.666;2024-03-25T12:59:35;3.80;97.30
21580;DHT22;10951;59.656;9.666;2024-03-25T13:02:00;3.80;97.00
21580;DHT22;10951;59.656;9.666;2024-03-25T13:04:26;3.70;96.80
21580;DHT22;10951;59.656;9.666;2024-03-25T13:06:52;3.70;97.40
21580;DHT22;10951;59.656;9.666;2024-03-25T13:09:18;3.70;97.60
21580;DHT22;10951;59.656;9.666;2024-03-25T13:11:44;3.70;97.70
21580;DHT22;10951;59.656;9.666;2024-03-25T13:14:13;3.70;97.70
21580;DHT22;10951;59.656;9.666;2024-03-25T13:16:39;3.70;97.60
21580;DHT22;10951;59.656;9.666;2024-03-25T13:19:06;3.60;97.80
21580;DHT22;10951;59.656;9.666;2024-03-25T13:21:32;3.50;98.20
21580;DHT22;10951;59.656;9.666;2024-03-25T13:23:58;3.40;98.20
21580;DHT22;10951;59.656;9.666;2024-03-25T13:26:24;3.30;98.80
21580;DHT22;10951;59.656;9.666;2024-03-25T13:28:50;3.30;99.60
21580;DHT22;10951;59.656;9.666;2024-03-25T13:31:16;3.20;99.90
21580;DHT22;10951;59.656;9.666;2024-03-25T13:33:42;3.10;99.90
21580;DHT22;10951;59.656;9.666;2024-03-25T13:36:08;3.00;99.90
21580;DHT22;10951;59.656;9.666;2024-03-25T13:38:34;2.90;99.90
21580;DHT22;10951;59.656;9.666;2024-03-25T13:41:01;2.90;99.90
21580;DHT22;10951;59.656;9.666;2024-03-25T13:43:27;2.80;99.90
21580;DHT22;10951;59.656;9.666;2024-03-25T13:45:53;2.80;99.90
21580;DHT22;10951;59.656;9.666;2024-03-25T13:48:19;2.70;99.90
21580;DHT22;10951;59.656;9.666;2024-03-25T13:50:45;2.70;99.90
21580;DHT22;10951;59.656;9.666;2024-03-25T13:53:13;2.70;99.90
21580;DHT22;10951;59.656;9.666;2024-03-25T13:55:39;2.70;99.90
21580;DHT22;10951;59.656;9.666;2024-03-25T13:58:06;2.80;99.90
21580;DHT22;10951;59.656;9.666;2024-03-25T14:00:33;2.80;99.90
21580;DHT22;10951;59.656;9.666;2024-03-25T14:03:02;2.70;99.90
21580;DHT22;10951;59.656;9.666;2024-03-25T14:05:28;2.70;99.90
21580;DHT22;10951;59.656;9.666;2024-03-25T14:07:54;2.70;99.90
21580;DHT22;10951;59.656;9.666;2024-03-25T14:10:24;2.70;99.90
21580;DHT22;10951;59.656;9.666;2024-03-25T14:12:50;2.80;99.90
21580;DHT22;10951;59.656;9.666;2024-03-25T14:15:16;2.80;99.90
21580;DHT22;10951;59.656;9.666;2024-03-25T14:17:41;2.80;99.90
21580;DHT22;10951;59.656;9.666;2024-03-25T14:20:07;2.80;99.90
21580;DHT22;10951;59.656;9.666;2024-03-25T14:22:34;2.80;99.90
21580;DHT22;10951;59.656;9.666;2024-03-25T14:25:00;2.80;99.90
21580;DHT22;10951;59.656;9.666;2024-03-25T14:27:26;2.80;99.90
21580;DHT22;10951;59.656;9.666;2024-03-25T14:29:52;2.80;99.90
21580;DHT22;10951;59.656;9.666;2024-03-25T14:32:18;3.00;99.90
21580;DHT22;10951;59.656;9.666;2024-03-25T14:34:44;3.00;99.90
21580;DHT22;10951;59.656;9.666;2024-03-25T14:37:11;3.00;99.90
21580;DHT22;10951;59.656;9.666;2024-03-25T14:39:36;3.00;99.90
21580;DHT22;10951;59.656;9.666;2024-03-25T14:42:03;2.90;99.90
21580;DHT22;10951;59.656;9.666;2024-03-25T14:44:31;2.80;99.90
21580;DHT22;10951;59.656;9.666;2024-03-25T14:46:57;2.80;99.90
21580;DHT22;10951;59.656;9.666;2024-03-25T14:49:24;2.80;99.90
21580;DHT22;10951;59.656;9.666;2024-03-25T14:51:50;2.80;99.90
21580;DHT22;10951;59.656;9.666;2024-03-25T14:54:17;2.60;99.90
21580;DHT22;10951;59.656;9.666;2024-03-25T14:56:44;2.50;99.90
21580;DHT22;10951;59.656;9.666;2024-03-25T14:59:09;2.50;99.90
21580;DHT22;10951;59.656;9.666;2024-03-25T15:01:35;2.40;99.90
21580;DHT22;10951;59.656;9.666;2024-03-25T15:04:03;2.40;99.90
21580;DHT22;10951;59.656;9.666;2024-03-25T15:06:29;2.40;99.90
21580;DHT22;10951;59.656;9.666;2024-03-25T15:08:56;2.40;99.90
21580;DHT22;10951;59.656;9.666;2024-03-25T15:11:22;2.40;99.90
21580;DHT22;10951;59.656;9.666;2024-03-25T15:13:48;2.40;99.90
21580;DHT22;10951;59.656;9.666;2024-03-25T15:16:14;2.40;99.90
21580;DHT22;10951;59.656;9.666;2024-03-25T15:18:40;2.40;99.90
21580;DHT22;10951;59.656;9.666;2024-03-25T15:21:06;2.40;99.90
21580;DHT22;10951;59.656;9.666;2024-03-25T15:23:31;2.40;99.90
21580;DHT22;10951;59.656;9.666;2024-03-25T15:25:58;2.40;99.90
21580;DHT22;10951;59.656;9.666;2024-03-25T15:28:24;2.30;99.90
21580;DHT22;10951;59.656;9.666;2024-03-25T15:30:50;2.30;99.90
21580;DHT22;10951;59.656;9.666;2024-03-25T15:33:17;2.20;99.90
21580;DHT22;10951;59.656;9.666;2024-03-25T15:35:46;2.10;99.90
21580;DHT22;10951;59.656;9.666;2024-03-25T15:38:11;2.10;99.90
21580;DHT22;10951;59.656;9.666;2024-03-25T15:40:37;2.20;99.90
21580;DHT22;10951;59.656;9.666;2024-03-25T15:43:03;2.10;99.90